sensor_id;sensor_type;location;lat;lon;timestamp;temperature;humidity
30865;DHT22;17574;49.418;11.038;2022-08-01T00:00:03;20.50;11.30
30865;DHT22;17574;49.418;11.038;2022-08-01T00:02:31;20.50;12.10
30865;DHT22;17574;49.418;11.038;2022-08-01T00:04:58;20.50;13.00
30865;DHT22;17574;49.418;11.038;2022-08-01T00:07:26;20.40;12.90
30865;DHT22;17574;49.418;11.038;2022-08-01T00:09:52;20.40;12.90
30865;DHT22;17574;49.418;11.038;2022-08-01T00:12:19;20.40;13.00
30865;DHT22;17574;49.418;11.038;2022-08-01T00:14:46;20.40;14.10
30865;DHT22;17574;49.418;11.038;2022-08-01T00:17:12;20.30;14.30
30865;DHT22;17574;49.418;11.038;2022-08-01T00:19:39;20.40;14.90
30865;DHT22;17574;49.418;11.038;2022-08-01T00:22:06;20.30;13.70
30865;DHT22;17574;49.418;11.038;2022-08-01T00:24:33;20.30;13.10
30865;DHT22;17574;49.418;11.038;2022-08-01T00:26:59;20.20;12.80
30865;DHT22;17574;49.418;11.038;2022-08-01T00:29:26;20.30;12.90
30865;DHT22;17574;49.418;11.038;2022-08-01T00:32:12;20.20;11.70
30865;DHT22;17574;49.418;11.038;2022-08-01T00:34:39;20.20;11.60
30865;DHT22;17574;49.418;11.038;2022-08-01T00:37:06;20.30;12.90
30865;DHT22;17574;49.418;11.038;2022-08-01T00:39:32;20.20;12.80
30865;DHT22;17574;49.418;11.038;2022-08-01T00:42:00;20.20;12.80
30865;DHT22;17574;49.418;11.038;2022-08-01T00:44:26;20.20;12.80
30865;DHT22;17574;49.418;11.038;2022-08-01T00:46:53;20.20;12.80
30865;DHT22;17574;49.418;11.038;2022-08-01T00:49:20;20.10;12.70
30865;DHT22;17574;49.418;11.038;2022-08-01T00:51:46;20.10;12.60
30865;DHT22;17574;49.418;11.038;2022-08-01T00:54:13;20.10;12.30
30865;DHT22;17574;49.418;11.038;2022-08-01T00:56:42;20.10;11.80
30865;DHT22;17574;49.418;11.038;2022-08-01T00:59:10;20.10;12.10
30865;DHT22;17574;49.418;11.038;2022-08-01T01:01:39;20.10;12.70
30865;DHT22;17574;49.418;11.038;2022-08-01T01:04:12;20.10;12.70
30865;DHT22;17574;49.418;11.038;2022-08-01T01:06:44;20.00;12.70
30865;DHT22;17574;49.418;11.038;2022-08-01T01:09:30;20.10;12.70
30865;DHT22;17574;49.418;11.038;2022-08-01T01:17:03;20.10;12.70
30865;DHT22;17574;49.418;11.038;2022-08-01T01:19:33;20.10;12.70
30865;DHT22;17574;49.418;11.038;2022-08-01T01:22:08;20.10;12.70
30865;DHT22;17574;49.418;11.038;2022-08-01T01:27:35;20.20;12.80
30865;DHT22;17574;49.418;11.038;2022-08-01T01:30:05;20.20;11.60
30865;DHT22;17574;49.418;11.038;2022-08-01T01:32:35;20.20;11.30
30865;DHT22;17574;49.418;11.038;2022-08-01T01:35:04;20.10;12.00
30865;DHT22;17574;49.418;11.038;2022-08-01T01:37:32;20.10;12.70
30865;DHT22;17574;49.418;11.038;2022-08-01T01:39:59;20.10;12.30
30865;DHT22;17574;49.418;11.038;2022-08-01T01:42:27;20.10;12.80
30865;DHT22;17574;49.418;11.038;2022-08-01T01:44:54;20.10;12.70
30865;DHT22;17574;49.418;11.038;2022-08-01T01:47:21;20.10;12.70
30865;DHT22;17574;49.418;11.038;2022-08-01T01:49:47;20.00;12.60
30865;DHT22;17574;49.418;11.038;2022-08-01T01:52:16;20.10;13.10
30865;DHT22;17574;49.418;11.038;2022-08-01T01:54:47;20.10;13.70
30865;DHT22;17574;49.418;11.038;2022-08-01T01:57:15;20.10;12.70
30865;DHT22;17574;49.418;11.038;2022-08-01T01:59:42;20.10;13.40
30865;DHT22;17574;49.418;11.038;2022-08-01T02:02:10;20.00;14.20
30865;DHT22;17574;49.418;11.038;2022-08-01T02:04:40;20.00;15.40
30865;DHT22;17574;49.418;11.038;2022-08-01T02:07:09;20.10;14.20
30865;DHT22;17574;49.418;11.038;2022-08-01T02:09:37;20.00;12.70
30865;DHT22;17574;49.418;11.038;2022-08-01T02:12:04;20.00;13.60
30865;DHT22;17574;49.418;11.038;2022-08-01T02:14:34;20.10;14.30
30865;DHT22;17574;49.418;11.038;2022-08-01T02:17:02;20.00;13.90
30865;DHT22;17574;49.418;11.038;2022-08-01T02:19:30;20.00;13.40
30865;DHT22;17574;49.418;11.038;2022-08-01T02:22:04;20.00;13.90
30865;DHT22;17574;49.418;11.038;2022-08-01T02:24:49;20.00;14.70
30865;DHT22;17574;49.418;11.038;2022-08-01T02:27:26;20.00;14.90
30865;DHT22;17574;49.418;11.038;2022-08-01T02:29:58;20.00;15.30
30865;DHT22;17574;49.418;11.038;2022-08-01T02:32:26;20.10;14.50
30865;DHT22;17574;49.418;11.038;2022-08-01T02:34:53;20.10;15.20
30865;DHT22;17574;49.418;11.038;2022-08-01T02:37:22;20.00;15.80
30865;DHT22;17574;49.418;11.038;2022-08-01T02:39:50;20.00;16.30
30865;DHT22;17574;49.418;11.038;2022-08-01T02:42:18;20.10;16.70
30865;DHT22;17574;49.418;11.038;2022-08-01T02:44:45;20.10;16.10
30865;DHT22;17574;49.418;11.038;2022-08-01T02:47:13;20.10;15.50
30865;DHT22;17574;49.418;11.038;2022-08-01T02:49:42;20.00;15.90
30865;DHT22;17574;49.418;11.038;2022-08-01T02:52:18;20.00;16.70
30865;DHT22;17574;49.418;11.038;2022-08-01T02:54:47;20.00;16.80
30865;DHT22;17574;49.418;11.038;2022-08-01T02:57:14;20.10;16.90
30865;DHT22;17574;49.418;11.038;2022-08-01T02:59:44;20.00;16.30
30865;DHT22;17574;49.418;11.038;2022-08-01T03:02:11;20.00;17.50
30865;DHT22;17574;49.418;11.038;2022-08-01T03:04:39;20.00;17.80
30865;DHT22;17574;49.418;11.038;2022-08-01T03:07:07;20.00;17.10
30865;DHT22;17574;49.418;11.038;2022-08-01T03:09:42;20.00;17.50
30865;DHT22;17574;49.418;11.038;2022-08-01T03:12:14;20.00;17.50
30865;DHT22;17574;49.418;11.038;2022-08-01T03:14:41;19.90;17.40
30865;DHT22;17574;49.418;11.038;2022-08-01T03:17:08;19.90;17.90
30865;DHT22;17574;49.418;11.038;2022-08-01T03:19:36;19.90;17.40
30865;DHT22;17574;49.418;11.038;2022-08-01T03:22:05;19.90;19.80
30865;DHT22;17574;49.418;11.038;2022-08-01T03:24:33;19.90;19.30
30865;DHT22;17574;49.418;11.038;2022-08-01T03:27:01;19.80;20.80
30865;DHT22;17574;49.418;11.038;2022-08-01T03:29:28;19.80;21.60
30865;DHT22;17574;49.418;11.038;2022-08-01T03:31:56;19.80;21.20
30865;DHT22;17574;49.418;11.038;2022-08-01T03:34:23;19.70;22.00
30865;DHT22;17574;49.418;11.038;2022-08-01T03:39:40;19.70;23.50
30865;DHT22;17574;49.418;11.038;2022-08-01T03:42:10;19.60;24.40
30865;DHT22;17574;49.418;11.038;2022-08-01T03:44:38;19.60;24.90
30865;DHT22;17574;49.418;11.038;2022-08-01T03:47:06;19.60;25.00
30865;DHT22;17574;49.418;11.038;2022-08-01T03:49:35;19.50;24.60
30865;DHT22;17574;49.418;11.038;2022-08-01T03:52:02;19.50;25.70
30865;DHT22;17574;49.418;11.038;2022-08-01T03:54:32;19.50;25.30
30865;DHT22;17574;49.418;11.038;2022-08-01T03:57:00;19.50;25.50
30865;DHT22;17574;49.418;11.038;2022-08-01T03:59:28;19.50;25.20
30865;DHT22;17574;49.418;11.038;2022-08-01T04:01:55;19.50;26.40
30865;DHT22;17574;49.418;11.038;2022-08-01T04:04:22;19.50;26.50
30865;DHT22;17574;49.418;11.038;2022-08-01T04:06:49;19.50;26.50
30865;DHT22;17574;49.418;11.038;2022-08-01T04:09:21;19.50;26.80
30865;DHT22;17574;49.418;11.038;2022-08-01T04:11:48;19.40;26.40
30865;DHT22;17574;49.418;11.038;2022-08-01T04:14:14;19.50;27.70
30865;DHT22;17574;49.418;11.038;2022-08-01T04:16:41;19.50;29.00
30865;DHT22;17574;49.418;11.038;2022-08-01T04:19:08;19.50;28.60
30865;DHT22;17574;49.418;11.038;2022-08-01T04:21:34;19.50;26.50
30865;DHT22;17574;49.418;11.038;2022-08-01T04:24:03;19.50;26.50
30865;DHT22;17574;49.418;11.038;2022-08-01T04:26:32;19.50;26.40
30865;DHT22;17574;49.418;11.038;2022-08-01T04:28:59;19.50;26.50
30865;DHT22;17574;49.418;11.038;2022-08-01T04:31:27;19.60;28.60
30865;DHT22;17574;49.418;11.038;2022-08-01T04:33:54;19.60;28.50
30865;DHT22;17574;49.418;11.038;2022-08-01T04:36:22;19.60;27.00
30865;DHT22;17574;49.418;11.038;2022-08-01T04:38:50;19.60;26.50
30865;DHT22;17574;49.418;11.038;2022-08-01T04:41:18;19.60;26.50
30865;DHT22;17574;49.418;11.038;2022-08-01T04:43:46;19.70;26.60
30865;DHT22;17574;49.418;11.038;2022-08-01T04:46:13;19.70;26.60
30865;DHT22;17574;49.418;11.038;2022-08-01T04:48:40;19.80;26.80
30865;DHT22;17574;49.418;11.038;2022-08-01T04:51:11;19.90;26.80
30865;DHT22;17574;49.418;11.038;2022-08-01T04:53:38;19.90;27.20
30865;DHT22;17574;49.418;11.038;2022-08-01T04:56:05;19.90;26.80
30865;DHT22;17574;49.418;11.038;2022-08-01T04:58:32;20.00;26.90
30865;DHT22;17574;49.418;11.038;2022-08-01T05:00:58;20.00;26.90
30865;DHT22;17574;49.418;11.038;2022-08-01T05:03:25;20.10;26.90
30865;DHT22;17574;49.418;11.038;2022-08-01T05:05:52;20.20;27.00
30865;DHT22;17574;49.418;11.038;2022-08-01T05:08:18;20.20;27.00
30865;DHT22;17574;49.418;11.038;2022-08-01T05:10:45;20.30;26.70
30865;DHT22;17574;49.418;11.038;2022-08-01T05:13:12;20.40;25.90
30865;DHT22;17574;49.418;11.038;2022-08-01T05:15:38;20.30;25.40
30865;DHT22;17574;49.418;11.038;2022-08-01T05:18:05;20.50;25.40
30865;DHT22;17574;49.418;11.038;2022-08-01T05:20:35;20.60;25.50
30865;DHT22;17574;49.418;11.038;2022-08-01T05:23:01;20.80;27.40
30865;DHT22;17574;49.418;11.038;2022-08-01T05:25:28;20.70;27.40
30865;DHT22;17574;49.418;11.038;2022-08-01T05:28:15;20.80;25.70
30865;DHT22;17574;49.418;11.038;2022-08-01T05:30:44;21.00;24.30
30865;DHT22;17574;49.418;11.038;2022-08-01T05:33:11;21.10;23.10
30865;DHT22;17574;49.418;11.038;2022-08-01T05:35:38;21.20;21.70
30865;DHT22;17574;49.418;11.038;2022-08-01T05:38:14;21.40;22.60
30865;DHT22;17574;49.418;11.038;2022-08-01T05:40:41;21.40;22.50
30865;DHT22;17574;49.418;11.038;2022-08-01T05:43:07;21.50;19.20
30865;DHT22;17574;49.418;11.038;2022-08-01T05:45:34;21.60;18.70
30865;DHT22;17574;49.418;11.038;2022-08-01T05:48:01;21.70;18.10
30865;DHT22;17574;49.418;11.038;2022-08-01T05:50:27;21.80;17.20
30865;DHT22;17574;49.418;11.038;2022-08-01T05:52:54;21.90;17.30
30865;DHT22;17574;49.418;11.038;2022-08-01T05:55:20;22.00;19.00
30865;DHT22;17574;49.418;11.038;2022-08-01T05:57:47;22.00;17.40
30865;DHT22;17574;49.418;11.038;2022-08-01T06:00:14;22.10;15.50
30865;DHT22;17574;49.418;11.038;2022-08-01T06:02:41;22.30;16.80
30865;DHT22;17574;49.418;11.038;2022-08-01T06:05:09;22.40;16.30
30865;DHT22;17574;49.418;11.038;2022-08-01T06:07:39;22.40;15.30
30865;DHT22;17574;49.418;11.038;2022-08-01T06:10:06;22.50;15.10
30865;DHT22;17574;49.418;11.038;2022-08-01T06:12:33;22.70;15.90
30865;DHT22;17574;49.418;11.038;2022-08-01T06:15:01;22.70;14.70
30865;DHT22;17574;49.418;11.038;2022-08-01T06:17:28;22.90;13.50
30865;DHT22;17574;49.418;11.038;2022-08-01T06:19:55;23.00;14.90
30865;DHT22;17574;49.418;11.038;2022-08-01T06:22:22;23.10;13.40
30865;DHT22;17574;49.418;11.038;2022-08-01T06:24:48;23.20;13.10
30865;DHT22;17574;49.418;11.038;2022-08-01T06:27:15;23.40;10.30
30865;DHT22;17574;49.418;11.038;2022-08-01T06:29:47;23.70;10.60
30865;DHT22;17574;49.418;11.038;2022-08-01T06:32:20;24.10;8.20
30865;DHT22;17574;49.418;11.038;2022-08-01T06:34:53;24.50;5.10
30865;DHT22;17574;49.418;11.038;2022-08-01T06:37:20;24.70;6.90
30865;DHT22;17574;49.418;11.038;2022-08-01T06:39:47;24.90;4.20
30865;DHT22;17574;49.418;11.038;2022-08-01T06:42:15;25.00;1.40
30865;DHT22;17574;49.418;11.038;2022-08-01T06:44:42;25.30;1.50
30865;DHT22;17574;49.418;11.038;2022-08-01T06:47:09;25.50;1.00
30865;DHT22;17574;49.418;11.038;2022-08-01T06:49:35;25.50;1.00
30865;DHT22;17574;49.418;11.038;2022-08-01T06:52:02;25.60;1.00
30865;DHT22;17574;49.418;11.038;2022-08-01T06:54:30;25.60;1.00
30865;DHT22;17574;49.418;11.038;2022-08-01T06:56:57;25.60;1.00
30865;DHT22;17574;49.418;11.038;2022-08-01T06:59:23;25.60;1.00
30865;DHT22;17574;49.418;11.038;2022-08-01T07:01:50;25.60;1.00
30865;DHT22;17574;49.418;11.038;2022-08-01T07:04:17;25.90;1.00
30865;DHT22;17574;49.418;11.038;2022-08-01T07:06:43;25.90;1.00
30865;DHT22;17574;49.418;11.038;2022-08-01T07:09:10;25.80;1.00
30865;DHT22;17574;49.418;11.038;2022-08-01T07:11:40;25.90;1.00
30865;DHT22;17574;49.418;11.038;2022-08-01T07:14:06;26.00;1.00
30865;DHT22;17574;49.418;11.038;2022-08-01T07:16:33;26.00;1.00
30865;DHT22;17574;49.418;11.038;2022-08-01T07:18:59;26.20;1.00
30865;DHT22;17574;49.418;11.038;2022-08-01T07:21:26;26.40;1.00
30865;DHT22;17574;49.418;11.038;2022-08-01T07:24:07;26.40;1.00
30865;DHT22;17574;49.418;11.038;2022-08-01T07:26:40;26.60;1.00
30865;DHT22;17574;49.418;11.038;2022-08-01T07:29:18;27.00;1.00
30865;DHT22;17574;49.418;11.038;2022-08-01T07:31:44;27.30;1.00
30865;DHT22;17574;49.418;11.038;2022-08-01T07:34:11;27.50;1.00
30865;DHT22;17574;49.418;11.038;2022-08-01T07:36:38;28.00;1.00
30865;DHT22;17574;49.418;11.038;2022-08-01T07:39:04;28.50;1.00
30865;DHT22;17574;49.418;11.038;2022-08-01T07:41:32;28.80;1.00
30865;DHT22;17574;49.418;11.038;2022-08-01T07:44:19;28.60;1.00
30865;DHT22;17574;49.418;11.038;2022-08-01T07:46:45;28.60;1.00
30865;DHT22;17574;49.418;11.038;2022-08-01T07:49:12;28.60;1.00
30865;DHT22;17574;49.418;11.038;2022-08-01T07:51:39;28.50;1.00
30865;DHT22;17574;49.418;11.038;2022-08-01T07:54:05;28.90;1.00
30865;DHT22;17574;49.418;11.038;2022-08-01T07:56:33;29.00;1.00
30865;DHT22;17574;49.418;11.038;2022-08-01T07:59:00;28.80;1.00
30865;DHT22;17574;49.418;11.038;2022-08-01T08:01:26;29.00;1.00
30865;DHT22;17574;49.418;11.038;2022-08-01T08:03:53;29.00;1.00
30865;DHT22;17574;49.418;11.038;2022-08-01T08:06:20;29.00;1.00
30865;DHT22;17574;49.418;11.038;2022-08-01T08:08:46;29.00;1.00
30865;DHT22;17574;49.418;11.038;2022-08-01T08:11:13;28.80;1.00
30865;DHT22;17574;49.418;11.038;2022-08-01T08:13:40;29.40;1.00
30865;DHT22;17574;49.418;11.038;2022-08-01T08:16:06;30.00;1.00
30865;DHT22;17574;49.418;11.038;2022-08-01T08:18:33;30.70;1.00
30865;DHT22;17574;49.418;11.038;2022-08-01T08:21:00;31.50;1.00
30865;DHT22;17574;49.418;11.038;2022-08-01T08:23:32;31.60;1.00
30865;DHT22;17574;49.418;11.038;2022-08-01T08:26:17;32.20;1.00
30865;DHT22;17574;49.418;11.038;2022-08-01T08:28:44;31.80;1.00
30865;DHT22;17574;49.418;11.038;2022-08-01T08:31:10;32.10;1.00
30865;DHT22;17574;49.418;11.038;2022-08-01T08:33:57;31.90;1.00
30865;DHT22;17574;49.418;11.038;2022-08-01T08:36:23;31.90;1.00
30865;DHT22;17574;49.418;11.038;2022-08-01T08:39:00;32.40;1.00
30865;DHT22;17574;49.418;11.038;2022-08-01T08:41:28;32.70;1.00
30865;DHT22;17574;49.418;11.038;2022-08-01T08:44:03;31.70;1.00
30865;DHT22;17574;49.418;11.038;2022-08-01T08:46:31;31.40;1.00
30865;DHT22;17574;49.418;11.038;2022-08-01T08:48:59;31.30;1.00
30865;DHT22;17574;49.418;11.038;2022-08-01T08:51:27;31.20;1.00
30865;DHT22;17574;49.418;11.038;2022-08-01T08:53:56;31.10;1.00
30865;DHT22;17574;49.418;11.038;2022-08-01T08:56:24;31.10;1.00
30865;DHT22;17574;49.418;11.038;2022-08-01T08:58:53;30.90;1.00
30865;DHT22;17574;49.418;11.038;2022-08-01T09:01:20;30.50;1.00
30865;DHT22;17574;49.418;11.038;2022-08-01T09:03:48;30.30;1.00
30865;DHT22;17574;49.418;11.038;2022-08-01T09:06:15;29.90;1.00
30865;DHT22;17574;49.418;11.038;2022-08-01T09:08:41;29.90;1.00
30865;DHT22;17574;49.418;11.038;2022-08-01T09:11:08;30.30;1.00
30865;DHT22;17574;49.418;11.038;2022-08-01T09:13:35;30.50;1.00
30865;DHT22;17574;49.418;11.038;2022-08-01T09:16:01;30.30;1.00
30865;DHT22;17574;49.418;11.038;2022-08-01T09:21:07;30.20;1.00
30865;DHT22;17574;49.418;11.038;2022-08-01T09:23:37;30.50;1.00
30865;DHT22;17574;49.418;11.038;2022-08-01T09:26:30;30.50;1.00
30865;DHT22;17574;49.418;11.038;2022-08-01T09:29:00;30.30;1.00
30865;DHT22;17574;49.418;11.038;2022-08-01T09:31:28;30.10;1.00
30865;DHT22;17574;49.418;11.038;2022-08-01T09:34:04;31.30;1.00
30865;DHT22;17574;49.418;11.038;2022-08-01T09:36:51;31.70;1.00
30865;DHT22;17574;49.418;11.038;2022-08-01T09:39:21;31.50;1.00
30865;DHT22;17574;49.418;11.038;2022-08-01T09:41:48;31.80;1.00
30865;DHT22;17574;49.418;11.038;2022-08-01T09:44:16;31.70;1.00
30865;DHT22;17574;49.418;11.038;2022-08-01T09:46:56;31.20;1.00
30865;DHT22;17574;49.418;11.038;2022-08-01T09:49:27;31.20;1.00
30865;DHT22;17574;49.418;11.038;2022-08-01T09:52:20;31.60;1.00
30865;DHT22;17574;49.418;11.038;2022-08-01T09:54:58;33.60;1.00
30865;DHT22;17574;49.418;11.038;2022-08-01T09:57:26;34.90;1.00
30865;DHT22;17574;49.418;11.038;2022-08-01T09:59:54;35.10;1.00
30865;DHT22;17574;49.418;11.038;2022-08-01T10:02:36;35.00;1.00
30865;DHT22;17574;49.418;11.038;2022-08-01T10:05:03;34.00;1.00
30865;DHT22;17574;49.418;11.038;2022-08-01T10:07:55;34.00;1.00
30865;DHT22;17574;49.418;11.038;2022-08-01T10:10:23;35.60;1.00
30865;DHT22;17574;49.418;11.038;2022-08-01T10:12:57;37.40;1.00
30865;DHT22;17574;49.418;11.038;2022-08-01T10:15:24;37.20;1.00
30865;DHT22;17574;49.418;11.038;2022-08-01T10:18:04;36.60;1.00
30865;DHT22;17574;49.418;11.038;2022-08-01T10:20:42;36.60;1.00
30865;DHT22;17574;49.418;11.038;2022-08-01T10:23:09;37.60;1.00
30865;DHT22;17574;49.418;11.038;2022-08-01T10:25:37;39.00;1.00
30865;DHT22;17574;49.418;11.038;2022-08-01T10:28:18;39.80;1.00
30865;DHT22;17574;49.418;11.038;2022-08-01T10:30:49;39.70;1.00
30865;DHT22;17574;49.418;11.038;2022-08-01T10:33:21;39.70;1.00
30865;DHT22;17574;49.418;11.038;2022-08-01T10:36:08;38.70;1.00
30865;DHT22;17574;49.418;11.038;2022-08-01T10:38:35;37.40;1.00
30865;DHT22;17574;49.418;11.038;2022-08-01T10:41:03;37.40;1.00
30865;DHT22;17574;49.418;11.038;2022-08-01T10:43:33;38.10;1.00
30865;DHT22;17574;49.418;11.038;2022-08-01T10:46:01;38.50;1.00
30865;DHT22;17574;49.418;11.038;2022-08-01T10:49:11;39.20;1.00
30865;DHT22;17574;49.418;11.038;2022-08-01T10:51:18;40.40;1.00
30865;DHT22;17574;49.418;11.038;2022-08-01T10:53:52;40.20;1.00
30865;DHT22;17574;49.418;11.038;2022-08-01T10:56:21;40.00;1.00
30865;DHT22;17574;49.418;11.038;2022-08-01T10:59:02;39.30;1.00
30865;DHT22;17574;49.418;11.038;2022-08-01T11:01:36;38.70;1.00
30865;DHT22;17574;49.418;11.038;2022-08-01T11:04:07;37.50;1.00
30865;DHT22;17574;49.418;11.038;2022-08-01T11:06:54;36.90;1.00
30865;DHT22;17574;49.418;11.038;2022-08-01T11:09:38;36.80;1.00
30865;DHT22;17574;49.418;11.038;2022-08-01T11:12:07;37.50;1.00
30865;DHT22;17574;49.418;11.038;2022-08-01T11:18:28;37.20;1.00
30865;DHT22;17574;49.418;11.038;2022-08-01T11:20:15;37.80;1.00
30865;DHT22;17574;49.418;11.038;2022-08-01T11:28:25;38.60;1.00
30865;DHT22;17574;49.418;11.038;2022-08-01T11:52:03;36.60;1.00
30865;DHT22;17574;49.418;11.038;2022-08-01T11:54:32;36.80;1.00
30865;DHT22;17574;49.418;11.038;2022-08-01T11:57:08;38.00;1.00
30865;DHT22;17574;49.418;11.038;2022-08-01T11:59:49;38.30;1.00
30865;DHT22;17574;49.418;11.038;2022-08-01T12:02:30;38.50;1.00
30865;DHT22;17574;49.418;11.038;2022-08-01T12:07:30;38.70;1.00
30865;DHT22;17574;49.418;11.038;2022-08-01T12:10:05;38.70;1.00
30865;DHT22;17574;49.418;11.038;2022-08-01T12:12:33;37.70;1.00
30865;DHT22;17574;49.418;11.038;2022-08-01T12:15:03;37.20;1.00
30865;DHT22;17574;49.418;11.038;2022-08-01T12:17:32;36.80;1.00
30865;DHT22;17574;49.418;11.038;2022-08-01T12:19:59;36.60;1.00
30865;DHT22;17574;49.418;11.038;2022-08-01T12:22:26;35.90;1.00
30865;DHT22;17574;49.418;11.038;2022-08-01T12:24:53;35.80;1.00
30865;DHT22;17574;49.418;11.038;2022-08-01T12:27:29;35.30;1.00
30865;DHT22;17574;49.418;11.038;2022-08-01T12:29:56;35.20;1.00
30865;DHT22;17574;49.418;11.038;2022-08-01T12:32:34;35.10;1.00
30865;DHT22;17574;49.418;11.038;2022-08-01T12:35:04;34.80;1.00
30865;DHT22;17574;49.418;11.038;2022-08-01T12:37:31;34.40;1.00
30865;DHT22;17574;49.418;11.038;2022-08-01T12:39:58;34.00;1.00
30865;DHT22;17574;49.418;11.038;2022-08-01T12:42:25;34.00;1.00
30865;DHT22;17574;49.418;11.038;2022-08-01T12:44:52;35.10;1.00
30865;DHT22;17574;49.418;11.038;2022-08-01T12:47:18;35.70;1.00
30865;DHT22;17574;49.418;11.038;2022-08-01T12:49:46;36.50;1.00
30865;DHT22;17574;49.418;11.038;2022-08-01T12:52:13;37.10;1.00
30865;DHT22;17574;49.418;11.038;2022-08-01T12:54:59;36.80;1.00
30865;DHT22;17574;49.418;11.038;2022-08-01T12:57:26;36.00;1.00
30865;DHT22;17574;49.418;11.038;2022-08-01T12:59:53;35.20;1.00
30865;DHT22;17574;49.418;11.038;2022-08-01T13:02:19;34.60;1.00
30865;DHT22;17574;49.418;11.038;2022-08-01T13:04:49;34.30;1.00
30865;DHT22;17574;49.418;11.038;2022-08-01T13:07:19;34.10;1.00
30865;DHT22;17574;49.418;11.038;2022-08-01T13:09:52;33.80;1.00
30865;DHT22;17574;49.418;11.038;2022-08-01T13:12:19;33.60;1.00
30865;DHT22;17574;49.418;11.038;2022-08-01T13:14:45;33.70;1.00
30865;DHT22;17574;49.418;11.038;2022-08-01T13:17:23;34.20;1.00
30865;DHT22;17574;49.418;11.038;2022-08-01T13:19:55;34.30;1.00
30865;DHT22;17574;49.418;11.038;2022-08-01T13:22:36;34.60;1.00
30865;DHT22;17574;49.418;11.038;2022-08-01T13:25:11;35.20;1.00
30865;DHT22;17574;49.418;11.038;2022-08-01T13:27:40;35.70;1.00
30865;DHT22;17574;49.418;11.038;2022-08-01T13:30:19;35.60;1.00
30865;DHT22;17574;49.418;11.038;2022-08-01T13:32:58;35.00;1.00
30865;DHT22;17574;49.418;11.038;2022-08-01T13:35:25;34.60;1.00
30865;DHT22;17574;49.418;11.038;2022-08-01T13:37:52;33.70;1.00
30865;DHT22;17574;49.418;11.038;2022-08-01T13:40:25;33.40;1.00
30865;DHT22;17574;49.418;11.038;2022-08-01T13:42:53;33.00;1.00
30865;DHT22;17574;49.418;11.038;2022-08-01T13:45:22;32.80;1.00
30865;DHT22;17574;49.418;11.038;2022-08-01T13:47:51;33.00;1.00
30865;DHT22;17574;49.418;11.038;2022-08-01T13:50:38;32.60;1.00
30865;DHT22;17574;49.418;11.038;2022-08-01T13:53:05;32.50;1.00
30865;DHT22;17574;49.418;11.038;2022-08-01T13:55:32;32.70;1.00
30865;DHT22;17574;49.418;11.038;2022-08-01T13:58:01;32.50;1.00
30865;DHT22;17574;49.418;11.038;2022-08-01T14:00:28;32.50;1.00
30865;DHT22;17574;49.418;11.038;2022-08-01T14:02:54;32.70;1.00
30865;DHT22;17574;49.418;11.038;2022-08-01T14:05:21;32.60;1.00
30865;DHT22;17574;49.418;11.038;2022-08-01T14:07:48;32.50;1.00
30865;DHT22;17574;49.418;11.038;2022-08-01T14:10:14;32.40;1.00
30865;DHT22;17574;49.418;11.038;2022-08-01T14:12:46;32.50;1.00
30865;DHT22;17574;49.418;11.038;2022-08-01T14:15:13;32.30;1.00
30865;DHT22;17574;49.418;11.038;2022-08-01T14:17:59;32.20;1.00
30865;DHT22;17574;49.418;11.038;2022-08-01T14:20:26;32.40;1.00
30865;DHT22;17574;49.418;11.038;2022-08-01T14:22:53;32.90;1.00
30865;DHT22;17574;49.418;11.038;2022-08-01T14:25:19;32.90;1.00
30865;DHT22;17574;49.418;11.038;2022-08-01T14:28:06;32.90;1.00
30865;DHT22;17574;49.418;11.038;2022-08-01T14:30:33;32.40;1.00
30865;DHT22;17574;49.418;11.038;2022-08-01T14:33:00;32.40;1.00
30865;DHT22;17574;49.418;11.038;2022-08-01T14:35:26;32.10;1.00
30865;DHT22;17574;49.418;11.038;2022-08-01T14:37:53;32.10;1.00
30865;DHT22;17574;49.418;11.038;2022-08-01T14:40:23;32.00;1.00
30865;DHT22;17574;49.418;11.038;2022-08-01T14:42:49;32.10;1.00
30865;DHT22;17574;49.418;11.038;2022-08-01T14:45:16;32.30;1.00
30865;DHT22;17574;49.418;11.038;2022-08-01T14:47:43;32.50;1.00
30865;DHT22;17574;49.418;11.038;2022-08-01T14:50:10;32.50;1.00
30865;DHT22;17574;49.418;11.038;2022-08-01T14:52:37;32.60;1.00
30865;DHT22;17574;49.418;11.038;2022-08-01T14:55:05;32.70;1.00
30865;DHT22;17574;49.418;11.038;2022-08-01T14:57:32;32.80;1.00
30865;DHT22;17574;49.418;11.038;2022-08-01T14:59:58;32.80;1.00
30865;DHT22;17574;49.418;11.038;2022-08-01T15:02:25;32.80;1.00
30865;DHT22;17574;49.418;11.038;2022-08-01T15:04:52;32.80;1.00
30865;DHT22;17574;49.418;11.038;2022-08-01T15:07:18;32.70;1.00
30865;DHT22;17574;49.418;11.038;2022-08-01T15:09:45;32.50;1.00
30865;DHT22;17574;49.418;11.038;2022-08-01T15:12:12;32.50;1.00
30865;DHT22;17574;49.418;11.038;2022-08-01T15:14:39;32.40;1.00
30865;DHT22;17574;49.418;11.038;2022-08-01T15:17:15;32.30;1.00
30865;DHT22;17574;49.418;11.038;2022-08-01T15:19:42;32.40;1.00
30865;DHT22;17574;49.418;11.038;2022-08-01T15:22:09;32.30;1.00
30865;DHT22;17574;49.418;11.038;2022-08-01T15:24:35;32.20;1.00
30865;DHT22;17574;49.418;11.038;2022-08-01T15:27:02;32.60;1.00
30865;DHT22;17574;49.418;11.038;2022-08-01T15:29:28;32.60;1.00
30865;DHT22;17574;49.418;11.038;2022-08-01T15:31:55;32.40;1.00
30865;DHT22;17574;49.418;11.038;2022-08-01T15:34:22;32.10;1.00
30865;DHT22;17574;49.418;11.038;2022-08-01T15:36:49;32.20;1.00
30865;DHT22;17574;49.418;11.038;2022-08-01T15:39:16;32.20;1.00
30865;DHT22;17574;49.418;11.038;2022-08-01T15:41:42;32.10;1.00
30865;DHT22;17574;49.418;11.038;2022-08-01T15:44:09;32.00;1.00
30865;DHT22;17574;49.418;11.038;2022-08-01T15:46:36;31.70;1.00
30865;DHT22;17574;49.418;11.038;2022-08-01T15:49:03;31.70;1.00
30865;DHT22;17574;49.418;11.038;2022-08-01T15:51:31;31.50;1.00
30865;DHT22;17574;49.418;11.038;2022-08-01T15:53:58;31.30;1.00
30865;DHT22;17574;49.418;11.038;2022-08-01T15:56:24;31.20;1.00
30865;DHT22;17574;49.418;11.038;2022-08-01T15:58:51;31.10;1.00
30865;DHT22;17574;49.418;11.038;2022-08-01T16:01:17;31.10;1.00
30865;DHT22;17574;49.418;11.038;2022-08-01T16:03:44;31.10;1.00
30865;DHT22;17574;49.418;11.038;2022-08-01T16:06:11;31.00;1.00
30865;DHT22;17574;49.418;11.038;2022-08-01T16:08:37;31.00;1.00
30865;DHT22;17574;49.418;11.038;2022-08-01T16:11:04;31.10;1.00
30865;DHT22;17574;49.418;11.038;2022-08-01T16:13:31;31.10;1.00
30865;DHT22;17574;49.418;11.038;2022-08-01T16:15:57;31.10;1.00
30865;DHT22;17574;49.418;11.038;2022-08-01T16:18:25;31.10;1.00
30865;DHT22;17574;49.418;11.038;2022-08-01T16:20:51;30.80;1.00
30865;DHT22;17574;49.418;11.038;2022-08-01T16:23:18;30.60;1.00